Pagrindinis puslapis
METAR-TAF:

METAR-TAF

Oro uostai :

Arvidsjaur, Švedija

platuma: 65-35-25N, ilguma: 019-16-55E, Aukštis: 379 m

Dabartinis oras

Ataskaita buvo paskelbta 35 minutes, ne 09:20 UTC
Vėjas 3 kt iš Vakarų/Šiaurės Vakarų
Temperatūra -9°C
Drėgmė 92%
Slėgis 1001 hPa
Matomumas 10 km arba daugiau
Su prošvaistėmis ne aukštis 4500 ft

METAR: ESNX 070920Z 29003KT 9999 BKN045 M09/M10 Q1001

Laikas: 10:55 (09:55 UTC)

Prognozė

Ataskaita buvo paskelbta 1 valandą ir 25 minutes, ne 08:30 UTC
Prognozė galioja nuo 07 metu 09 UTC su 07 metu 18 UTC
Vėjas 5 kt iš Vakarų/Šiaurės Vakarų
Matomumas 10 km arba daugiau
Su prošvaistėmis ne aukštis 3000 ft
sniegas
Laikinai
nuo 07 metu 09 UTC su 07 metu 12 UTC
Matomumas: 3000 m
Su prošvaistėmis ne aukštis 400 ft
sniegas

TAF: ESNX 070830Z 0709/0718 30005KT 9999 -SN BKN030 TEMPO 0709/0712 3000 -SN BKN004

Orai ataskaitas ir orų prognozės (METAR, TAF).

turimą stotys yra geltonos ir raudonos taškus žemėlapyje.

Perkelti pele per norėdami pamatyti stoties vardą.

Tada spustelėkite, norėdami matyti oro stebėjimo ir prognozės.

Norėdami pakeisti žemėlapį: spustelėkite ant žalios mygtukų su juodo kryžiaus žemyn,; žalią mygtuką su brūkšneliu, jei norite nutolinti; arba žalių rodyklių gretimoms žemėlapius.


METAR-TAF: